sensor_id;sensor_type;location;lat;lon;timestamp;P1;durP1;ratioP1;P2;durP2;ratioP2
357;SDS011;167;47.558;7.602;2023-07-30T00:01:51;2.93;;;2.73;;
357;SDS011;167;47.558;7.602;2023-07-30T00:04:17;3.30;;;3.00;;
357;SDS011;167;47.558;7.602;2023-07-30T00:06:43;3.50;;;3.20;;
357;SDS011;167;47.558;7.602;2023-07-30T00:09:09;4.07;;;3.77;;
357;SDS011;167;47.558;7.602;2023-07-30T00:11:35;3.07;;;2.87;;
357;SDS011;167;47.558;7.602;2023-07-30T00:14:00;3.23;;;3.03;;
357;SDS011;167;47.558;7.602;2023-07-30T00:16:26;3.80;;;3.60;;
357;SDS011;167;47.558;7.602;2023-07-30T00:18:52;4.53;;;4.17;;
357;SDS011;167;47.558;7.602;2023-07-30T00:21:18;3.97;;;3.67;;
357;SDS011;167;47.558;7.602;2023-07-30T00:23:44;3.73;;;3.43;;
357;SDS011;167;47.558;7.602;2023-07-30T00:26:11;3.33;;;3.10;;
357;SDS011;167;47.558;7.602;2023-07-30T00:28:37;3.27;;;3.07;;
357;SDS011;167;47.558;7.602;2023-07-30T00:31:03;4.70;;;4.23;;
357;SDS011;167;47.558;7.602;2023-07-30T00:33:29;3.40;;;3.10;;
357;SDS011;167;47.558;7.602;2023-07-30T00:35:55;4.43;;;3.43;;
357;SDS011;167;47.558;7.602;2023-07-30T00:38:21;3.67;;;3.47;;
357;SDS011;167;47.558;7.602;2023-07-30T00:40:47;3.63;;;3.43;;
357;SDS011;167;47.558;7.602;2023-07-30T00:43:12;3.70;;;3.23;;
357;SDS011;167;47.558;7.602;2023-07-30T00:45:40;3.27;;;3.07;;
357;SDS011;167;47.558;7.602;2023-07-30T00:48:06;3.37;;;3.17;;
357;SDS011;167;47.558;7.602;2023-07-30T00:50:32;4.60;;;3.70;;
357;SDS011;167;47.558;7.602;2023-07-30T00:52:58;3.63;;;3.33;;
357;SDS011;167;47.558;7.602;2023-07-30T00:55:24;3.53;;;3.33;;
357;SDS011;167;47.558;7.602;2023-07-30T00:57:51;3.13;;;2.97;;
357;SDS011;167;47.558;7.602;2023-07-30T01:00:17;2.90;;;2.70;;
357;SDS011;167;47.558;7.602;2023-07-30T01:02:43;3.47;;;3.17;;
357;SDS011;167;47.558;7.602;2023-07-30T01:05:09;2.50;;;2.40;;
357;SDS011;167;47.558;7.602;2023-07-30T01:07:35;3.27;;;3.07;;
357;SDS011;167;47.558;7.602;2023-07-30T01:10:01;3.17;;;3.00;;
357;SDS011;167;47.558;7.602;2023-07-30T01:12:28;5.13;;;3.10;;
357;SDS011;167;47.558;7.602;2023-07-30T01:14:56;3.20;;;3.00;;
357;SDS011;167;47.558;7.602;2023-07-30T01:17:22;2.70;;;2.60;;
357;SDS011;167;47.558;7.602;2023-07-30T01:19:49;2.90;;;2.73;;
357;SDS011;167;47.558;7.602;2023-07-30T01:22:15;3.43;;;3.23;;
357;SDS011;167;47.558;7.602;2023-07-30T01:24:41;3.83;;;3.53;;
357;SDS011;167;47.558;7.602;2023-07-30T01:27:08;3.57;;;3.37;;
357;SDS011;167;47.558;7.602;2023-07-30T01:29:41;3.93;;;3.73;;
357;SDS011;167;47.558;7.602;2023-07-30T01:32:08;3.87;;;3.67;;
357;SDS011;167;47.558;7.602;2023-07-30T01:34:35;3.50;;;3.30;;
357;SDS011;167;47.558;7.602;2023-07-30T01:37:02;3.57;;;3.37;;
357;SDS011;167;47.558;7.602;2023-07-30T01:39:28;4.40;;;4.00;;
357;SDS011;167;47.558;7.602;2023-07-30T01:41:55;4.13;;;3.83;;
357;SDS011;167;47.558;7.602;2023-07-30T01:44:21;4.83;;;4.43;;
357;SDS011;167;47.558;7.602;2023-07-30T01:46:47;5.40;;;4.90;;
357;SDS011;167;47.558;7.602;2023-07-30T01:49:13;5.67;;;5.17;;
357;SDS011;167;47.558;7.602;2023-07-30T01:51:39;4.77;;;4.40;;
357;SDS011;167;47.558;7.602;2023-07-30T01:54:05;5.00;;;4.60;;
357;SDS011;167;47.558;7.602;2023-07-30T01:56:31;7.93;;;4.43;;
357;SDS011;167;47.558;7.602;2023-07-30T01:58:57;4.43;;;4.03;;
357;SDS011;167;47.558;7.602;2023-07-30T02:01:23;5.70;;;5.20;;
357;SDS011;167;47.558;7.602;2023-07-30T02:03:48;5.20;;;4.80;;
357;SDS011;167;47.558;7.602;2023-07-30T02:06:14;5.80;;;5.40;;
357;SDS011;167;47.558;7.602;2023-07-30T02:08:40;5.93;;;5.53;;
357;SDS011;167;47.558;7.602;2023-07-30T02:11:06;4.13;;;3.83;;
357;SDS011;167;47.558;7.602;2023-07-30T02:13:32;4.57;;;4.20;;
357;SDS011;167;47.558;7.602;2023-07-30T02:15:58;3.70;;;3.40;;
357;SDS011;167;47.558;7.602;2023-07-30T02:18:24;4.00;;;3.70;;
357;SDS011;167;47.558;7.602;2023-07-30T02:20:50;4.00;;;3.70;;
357;SDS011;167;47.558;7.602;2023-07-30T02:23:16;3.40;;;3.20;;
357;SDS011;167;47.558;7.602;2023-07-30T02:25:42;4.10;;;3.87;;
357;SDS011;167;47.558;7.602;2023-07-30T02:28:08;3.60;;;3.40;;
357;SDS011;167;47.558;7.602;2023-07-30T02:30:34;2.90;;;2.70;;
357;SDS011;167;47.558;7.602;2023-07-30T02:33:01;3.73;;;3.50;;
357;SDS011;167;47.558;7.602;2023-07-30T02:35:27;3.60;;;3.30;;
357;SDS011;167;47.558;7.602;2023-07-30T02:37:53;3.33;;;3.10;;
357;SDS011;167;47.558;7.602;2023-07-30T02:40:18;3.80;;;3.50;;
357;SDS011;167;47.558;7.602;2023-07-30T02:42:45;3.20;;;3.00;;
357;SDS011;167;47.558;7.602;2023-07-30T02:45:11;3.77;;;3.47;;
357;SDS011;167;47.558;7.602;2023-07-30T02:47:36;2.90;;;2.80;;
357;SDS011;167;47.558;7.602;2023-07-30T02:50:04;4.73;;;3.50;;
357;SDS011;167;47.558;7.602;2023-07-30T02:52:30;3.57;;;3.27;;
357;SDS011;167;47.558;7.602;2023-07-30T02:54:56;3.90;;;3.60;;
357;SDS011;167;47.558;7.602;2023-07-30T02:57:22;2.93;;;2.73;;
357;SDS011;167;47.558;7.602;2023-07-30T02:59:48;3.13;;;3.03;;
357;SDS011;167;47.558;7.602;2023-07-30T03:02:14;3.67;;;3.30;;
357;SDS011;167;47.558;7.602;2023-07-30T03:04:40;3.37;;;3.17;;
357;SDS011;167;47.558;7.602;2023-07-30T03:07:06;3.40;;;3.07;;
357;SDS011;167;47.558;7.602;2023-07-30T03:09:32;3.70;;;3.50;;
357;SDS011;167;47.558;7.602;2023-07-30T03:11:58;3.30;;;3.10;;
357;SDS011;167;47.558;7.602;2023-07-30T03:14:24;4.10;;;3.80;;
357;SDS011;167;47.558;7.602;2023-07-30T03:16:50;3.10;;;2.90;;
357;SDS011;167;47.558;7.602;2023-07-30T03:19:17;3.83;;;3.27;;
357;SDS011;167;47.558;7.602;2023-07-30T03:21:42;2.90;;;2.70;;
357;SDS011;167;47.558;7.602;2023-07-30T03:24:08;4.33;;;3.30;;
357;SDS011;167;47.558;7.602;2023-07-30T03:26:34;3.47;;;3.27;;
357;SDS011;167;47.558;7.602;2023-07-30T03:29:00;3.23;;;3.00;;
357;SDS011;167;47.558;7.602;2023-07-30T03:31:26;3.07;;;2.30;;
357;SDS011;167;47.558;7.602;2023-07-30T03:33:53;2.97;;;2.83;;
357;SDS011;167;47.558;7.602;2023-07-30T03:36:19;3.37;;;3.07;;
357;SDS011;167;47.558;7.602;2023-07-30T03:38:45;2.67;;;2.57;;
357;SDS011;167;47.558;7.602;2023-07-30T03:41:11;3.03;;;2.83;;
357;SDS011;167;47.558;7.602;2023-07-30T03:43:37;2.40;;;2.30;;
357;SDS011;167;47.558;7.602;2023-07-30T03:46:03;2.17;;;2.07;;
357;SDS011;167;47.558;7.602;2023-07-30T03:48:29;2.00;;;1.90;;
357;SDS011;167;47.558;7.602;2023-07-30T03:50:55;1.90;;;1.80;;
357;SDS011;167;47.558;7.602;2023-07-30T03:53:22;3.43;;;2.33;;
357;SDS011;167;47.558;7.602;2023-07-30T03:55:48;2.37;;;2.27;;
357;SDS011;167;47.558;7.602;2023-07-30T03:58:14;2.87;;;2.67;;
357;SDS011;167;47.558;7.602;2023-07-30T04:00:40;2.23;;;2.13;;
357;SDS011;167;47.558;7.602;2023-07-30T04:03:06;3.23;;;3.03;;
357;SDS011;167;47.558;7.602;2023-07-30T04:05:32;3.40;;;3.23;;
357;SDS011;167;47.558;7.602;2023-07-30T04:07:58;3.17;;;2.97;;
357;SDS011;167;47.558;7.602;2023-07-30T04:10:25;2.93;;;2.73;;
357;SDS011;167;47.558;7.602;2023-07-30T04:12:51;3.00;;;2.80;;
357;SDS011;167;47.558;7.602;2023-07-30T04:15:17;3.70;;;2.30;;
357;SDS011;167;47.558;7.602;2023-07-30T04:17:43;2.20;;;2.10;;
357;SDS011;167;47.558;7.602;2023-07-30T04:20:09;2.37;;;2.27;;
357;SDS011;167;47.558;7.602;2023-07-30T04:22:35;2.00;;;1.90;;
357;SDS011;167;47.558;7.602;2023-07-30T04:25:02;2.00;;;1.90;;
357;SDS011;167;47.558;7.602;2023-07-30T04:27:28;4.23;;;1.97;;
357;SDS011;167;47.558;7.602;2023-07-30T04:29:54;1.90;;;1.80;;
357;SDS011;167;47.558;7.602;2023-07-30T04:32:20;2.10;;;1.90;;
357;SDS011;167;47.558;7.602;2023-07-30T04:34:46;1.73;;;1.60;;
357;SDS011;167;47.558;7.602;2023-07-30T04:37:12;2.17;;;2.00;;
357;SDS011;167;47.558;7.602;2023-07-30T04:39:38;1.40;;;1.40;;
357;SDS011;167;47.558;7.602;2023-07-30T04:42:04;1.83;;;1.73;;
357;SDS011;167;47.558;7.602;2023-07-30T04:44:30;1.50;;;1.50;;
357;SDS011;167;47.558;7.602;2023-07-30T04:46:56;1.50;;;1.40;;
357;SDS011;167;47.558;7.602;2023-07-30T04:49:22;1.57;;;1.47;;
357;SDS011;167;47.558;7.602;2023-07-30T04:51:48;1.57;;;1.53;;
357;SDS011;167;47.558;7.602;2023-07-30T04:54:14;3.70;;;1.77;;
357;SDS011;167;47.558;7.602;2023-07-30T04:56:40;1.60;;;1.60;;
357;SDS011;167;47.558;7.602;2023-07-30T04:59:06;5.60;;;2.40;;
357;SDS011;167;47.558;7.602;2023-07-30T05:01:32;1.90;;;1.80;;
357;SDS011;167;47.558;7.602;2023-07-30T05:03:58;2.30;;;1.63;;
357;SDS011;167;47.558;7.602;2023-07-30T05:06:24;2.50;;;2.30;;
357;SDS011;167;47.558;7.602;2023-07-30T05:08:50;2.80;;;2.60;;
357;SDS011;167;47.558;7.602;2023-07-30T05:11:16;5.30;;;2.50;;
357;SDS011;167;47.558;7.602;2023-07-30T05:13:42;1.70;;;1.60;;
357;SDS011;167;47.558;7.602;2023-07-30T05:16:08;1.87;;;1.77;;
357;SDS011;167;47.558;7.602;2023-07-30T05:18:34;1.73;;;1.53;;
357;SDS011;167;47.558;7.602;2023-07-30T05:21:00;3.50;;;1.93;;
357;SDS011;167;47.558;7.602;2023-07-30T05:23:26;1.27;;;1.27;;
357;SDS011;167;47.558;7.602;2023-07-30T05:25:52;2.23;;;2.13;;
357;SDS011;167;47.558;7.602;2023-07-30T05:28:18;1.80;;;1.70;;
357;SDS011;167;47.558;7.602;2023-07-30T05:30:44;2.10;;;2.00;;
357;SDS011;167;47.558;7.602;2023-07-30T05:33:10;4.03;;;2.63;;
357;SDS011;167;47.558;7.602;2023-07-30T05:35:35;2.07;;;1.97;;
357;SDS011;167;47.558;7.602;2023-07-30T05:38:01;2.00;;;1.90;;
357;SDS011;167;47.558;7.602;2023-07-30T05:40:27;1.73;;;1.63;;
357;SDS011;167;47.558;7.602;2023-07-30T05:42:53;1.90;;;1.70;;
357;SDS011;167;47.558;7.602;2023-07-30T05:45:19;1.63;;;1.53;;
357;SDS011;167;47.558;7.602;2023-07-30T05:47:45;2.67;;;2.47;;
357;SDS011;167;47.558;7.602;2023-07-30T05:50:11;1.90;;;1.80;;
357;SDS011;167;47.558;7.602;2023-07-30T05:52:37;2.10;;;1.77;;
357;SDS011;167;47.558;7.602;2023-07-30T05:55:03;1.10;;;1.10;;
357;SDS011;167;47.558;7.602;2023-07-30T05:57:29;1.37;;;1.30;;
357;SDS011;167;47.558;7.602;2023-07-30T05:59:55;1.90;;;1.47;;
357;SDS011;167;47.558;7.602;2023-07-30T06:02:21;1.13;;;1.03;;
357;SDS011;167;47.558;7.602;2023-07-30T06:04:47;0.97;;;0.97;;
357;SDS011;167;47.558;7.602;2023-07-30T06:07:13;1.10;;;1.10;;
357;SDS011;167;47.558;7.602;2023-07-30T06:09:39;1.13;;;1.07;;
357;SDS011;167;47.558;7.602;2023-07-30T06:12:05;0.87;;;0.87;;
357;SDS011;167;47.558;7.602;2023-07-30T06:14:31;1.30;;;1.17;;
357;SDS011;167;47.558;7.602;2023-07-30T06:16:57;1.43;;;1.07;;
357;SDS011;167;47.558;7.602;2023-07-30T06:19:23;1.10;;;1.00;;
357;SDS011;167;47.558;7.602;2023-07-30T06:21:49;1.17;;;1.17;;
357;SDS011;167;47.558;7.602;2023-07-30T06:24:16;1.17;;;1.17;;
357;SDS011;167;47.558;7.602;2023-07-30T06:26:42;1.00;;;1.00;;
357;SDS011;167;47.558;7.602;2023-07-30T06:29:08;2.03;;;1.13;;
357;SDS011;167;47.558;7.602;2023-07-30T06:31:34;0.90;;;0.90;;
357;SDS011;167;47.558;7.602;2023-07-30T06:33:59;0.90;;;0.90;;
357;SDS011;167;47.558;7.602;2023-07-30T06:36:25;1.00;;;0.90;;
357;SDS011;167;47.558;7.602;2023-07-30T06:38:51;1.07;;;1.07;;
357;SDS011;167;47.558;7.602;2023-07-30T06:41:17;0.70;;;0.70;;
357;SDS011;167;47.558;7.602;2023-07-30T06:43:43;0.90;;;0.90;;
357;SDS011;167;47.558;7.602;2023-07-30T06:46:09;1.10;;;1.10;;
357;SDS011;167;47.558;7.602;2023-07-30T06:48:35;1.33;;;1.00;;
357;SDS011;167;47.558;7.602;2023-07-30T06:51:05;2.30;;;0.97;;
357;SDS011;167;47.558;7.602;2023-07-30T06:53:31;2.00;;;0.90;;
357;SDS011;167;47.558;7.602;2023-07-30T06:55:57;4.10;;;1.10;;
357;SDS011;167;47.558;7.602;2023-07-30T06:58:23;0.73;;;0.73;;
357;SDS011;167;47.558;7.602;2023-07-30T07:00:49;1.00;;;1.00;;
357;SDS011;167;47.558;7.602;2023-07-30T07:03:15;0.90;;;0.90;;
357;SDS011;167;47.558;7.602;2023-07-30T07:05:41;0.70;;;0.70;;
357;SDS011;167;47.558;7.602;2023-07-30T07:08:07;0.60;;;0.60;;
357;SDS011;167;47.558;7.602;2023-07-30T07:10:33;1.00;;;1.00;;
357;SDS011;167;47.558;7.602;2023-07-30T07:12:59;1.00;;;1.00;;
357;SDS011;167;47.558;7.602;2023-07-30T07:15:25;1.00;;;0.83;;
357;SDS011;167;47.558;7.602;2023-07-30T07:17:51;1.00;;;1.00;;
357;SDS011;167;47.558;7.602;2023-07-30T07:20:17;0.80;;;0.80;;
357;SDS011;167;47.558;7.602;2023-07-30T07:22:43;0.87;;;0.87;;
357;SDS011;167;47.558;7.602;2023-07-30T07:25:09;0.90;;;0.80;;
357;SDS011;167;47.558;7.602;2023-07-30T07:27:35;0.90;;;0.90;;
357;SDS011;167;47.558;7.602;2023-07-30T07:30:01;0.90;;;0.90;;
357;SDS011;167;47.558;7.602;2023-07-30T07:32:27;0.93;;;0.93;;
357;SDS011;167;47.558;7.602;2023-07-30T07:34:53;1.00;;;0.97;;
357;SDS011;167;47.558;7.602;2023-07-30T07:37:19;0.90;;;0.90;;
357;SDS011;167;47.558;7.602;2023-07-30T07:39:45;0.93;;;0.93;;
357;SDS011;167;47.558;7.602;2023-07-30T07:42:11;1.00;;;1.00;;
357;SDS011;167;47.558;7.602;2023-07-30T07:44:37;1.10;;;1.10;;
357;SDS011;167;47.558;7.602;2023-07-30T07:47:03;3.13;;;0.90;;
357;SDS011;167;47.558;7.602;2023-07-30T07:49:29;1.20;;;1.20;;
357;SDS011;167;47.558;7.602;2023-07-30T07:51:55;0.80;;;0.80;;
357;SDS011;167;47.558;7.602;2023-07-30T07:54:21;1.30;;;1.20;;
357;SDS011;167;47.558;7.602;2023-07-30T07:56:47;0.70;;;0.70;;
357;SDS011;167;47.558;7.602;2023-07-30T07:59:13;1.17;;;1.17;;
357;SDS011;167;47.558;7.602;2023-07-30T08:01:39;1.03;;;1.03;;
357;SDS011;167;47.558;7.602;2023-07-30T08:04:05;0.80;;;0.80;;
357;SDS011;167;47.558;7.602;2023-07-30T08:06:32;0.90;;;0.90;;
357;SDS011;167;47.558;7.602;2023-07-30T08:08:58;1.50;;;1.27;;
357;SDS011;167;47.558;7.602;2023-07-30T08:11:23;0.97;;;0.97;;
357;SDS011;167;47.558;7.602;2023-07-30T08:13:49;0.90;;;0.90;;
357;SDS011;167;47.558;7.602;2023-07-30T08:16:15;0.77;;;0.77;;
357;SDS011;167;47.558;7.602;2023-07-30T08:18:41;0.80;;;0.80;;
357;SDS011;167;47.558;7.602;2023-07-30T08:21:07;0.70;;;0.70;;
357;SDS011;167;47.558;7.602;2023-07-30T08:23:33;0.70;;;0.70;;
357;SDS011;167;47.558;7.602;2023-07-30T08:25:59;0.80;;;0.80;;
357;SDS011;167;47.558;7.602;2023-07-30T08:28:25;1.20;;;1.20;;
357;SDS011;167;47.558;7.602;2023-07-30T08:30:51;0.90;;;0.90;;
357;SDS011;167;47.558;7.602;2023-07-30T08:33:17;0.87;;;0.87;;
357;SDS011;167;47.558;7.602;2023-07-30T08:35:43;0.70;;;0.70;;
357;SDS011;167;47.558;7.602;2023-07-30T08:38:09;1.10;;;0.90;;
357;SDS011;167;47.558;7.602;2023-07-30T08:40:35;0.80;;;0.80;;
357;SDS011;167;47.558;7.602;2023-07-30T08:43:02;1.00;;;1.00;;
357;SDS011;167;47.558;7.602;2023-07-30T08:45:28;1.77;;;1.60;;
357;SDS011;167;47.558;7.602;2023-07-30T08:47:54;0.80;;;0.80;;
357;SDS011;167;47.558;7.602;2023-07-30T08:50:20;1.10;;;1.10;;
357;SDS011;167;47.558;7.602;2023-07-30T08:52:46;0.63;;;0.63;;
357;SDS011;167;47.558;7.602;2023-07-30T08:55:13;1.20;;;1.20;;
357;SDS011;167;47.558;7.602;2023-07-30T08:57:40;1.50;;;0.90;;
357;SDS011;167;47.558;7.602;2023-07-30T09:00:08;0.73;;;0.73;;
357;SDS011;167;47.558;7.602;2023-07-30T09:02:37;1.60;;;1.43;;
357;SDS011;167;47.558;7.602;2023-07-30T09:05:04;1.20;;;1.10;;
357;SDS011;167;47.558;7.602;2023-07-30T09:07:30;0.90;;;0.90;;
357;SDS011;167;47.558;7.602;2023-07-30T09:09:56;1.20;;;1.20;;
357;SDS011;167;47.558;7.602;2023-07-30T09:12:25;0.80;;;0.80;;
357;SDS011;167;47.558;7.602;2023-07-30T09:14:51;0.90;;;0.90;;
357;SDS011;167;47.558;7.602;2023-07-30T09:17:18;1.23;;;0.93;;
357;SDS011;167;47.558;7.602;2023-07-30T09:19:44;1.17;;;1.13;;
357;SDS011;167;47.558;7.602;2023-07-30T09:22:12;1.00;;;1.00;;
357;SDS011;167;47.558;7.602;2023-07-30T09:24:41;1.90;;;1.77;;
357;SDS011;167;47.558;7.602;2023-07-30T09:27:09;0.67;;;0.67;;
357;SDS011;167;47.558;7.602;2023-07-30T09:29:35;0.67;;;0.67;;
357;SDS011;167;47.558;7.602;2023-07-30T09:32:00;0.57;;;0.57;;
357;SDS011;167;47.558;7.602;2023-07-30T09:34:26;0.73;;;0.73;;
357;SDS011;167;47.558;7.602;2023-07-30T09:36:54;0.60;;;0.60;;
357;SDS011;167;47.558;7.602;2023-07-30T09:39:21;0.60;;;0.60;;
357;SDS011;167;47.558;7.602;2023-07-30T09:41:48;1.00;;;1.00;;
357;SDS011;167;47.558;7.602;2023-07-30T09:44:15;0.97;;;0.97;;
357;SDS011;167;47.558;7.602;2023-07-30T09:46:42;0.90;;;0.90;;
357;SDS011;167;47.558;7.602;2023-07-30T09:49:08;0.70;;;0.70;;
357;SDS011;167;47.558;7.602;2023-07-30T09:51:36;0.60;;;0.60;;
357;SDS011;167;47.558;7.602;2023-07-30T09:54:02;1.10;;;0.70;;
357;SDS011;167;47.558;7.602;2023-07-30T09:56:28;0.70;;;0.70;;
357;SDS011;167;47.558;7.602;2023-07-30T09:58:54;0.70;;;0.70;;
357;SDS011;167;47.558;7.602;2023-07-30T10:01:20;0.77;;;0.77;;
357;SDS011;167;47.558;7.602;2023-07-30T10:03:48;0.50;;;0.50;;
357;SDS011;167;47.558;7.602;2023-07-30T10:06:14;0.93;;;0.90;;
357;SDS011;167;47.558;7.602;2023-07-30T10:08:41;0.70;;;0.70;;
357;SDS011;167;47.558;7.602;2023-07-30T10:11:07;0.57;;;0.57;;
357;SDS011;167;47.558;7.602;2023-07-30T10:13:34;1.50;;;1.50;;
357;SDS011;167;47.558;7.602;2023-07-30T10:16:00;0.70;;;0.70;;
357;SDS011;167;47.558;7.602;2023-07-30T10:18:33;0.70;;;0.70;;
357;SDS011;167;47.558;7.602;2023-07-30T10:20:59;0.90;;;0.77;;
357;SDS011;167;47.558;7.602;2023-07-30T10:23:27;0.73;;;0.73;;
357;SDS011;167;47.558;7.602;2023-07-30T10:25:54;0.70;;;0.70;;
357;SDS011;167;47.558;7.602;2023-07-30T10:28:31;2.20;;;1.03;;
357;SDS011;167;47.558;7.602;2023-07-30T10:30:58;1.00;;;1.00;;
357;SDS011;167;47.558;7.602;2023-07-30T10:33:27;1.03;;;1.00;;
357;SDS011;167;47.558;7.602;2023-07-30T10:36:09;0.80;;;0.80;;
357;SDS011;167;47.558;7.602;2023-07-30T10:38:35;0.90;;;0.90;;
357;SDS011;167;47.558;7.602;2023-07-30T10:41:12;0.77;;;0.77;;
357;SDS011;167;47.558;7.602;2023-07-30T10:43:39;0.80;;;0.80;;
357;SDS011;167;47.558;7.602;2023-07-30T10:46:05;0.97;;;0.87;;
357;SDS011;167;47.558;7.602;2023-07-30T10:48:35;0.80;;;0.80;;
357;SDS011;167;47.558;7.602;2023-07-30T10:51:02;0.70;;;0.70;;
357;SDS011;167;47.558;7.602;2023-07-30T10:53:28;0.73;;;0.73;;
357;SDS011;167;47.558;7.602;2023-07-30T10:55:57;0.90;;;0.90;;
357;SDS011;167;47.558;7.602;2023-07-30T10:58:25;3.33;;;0.77;;
357;SDS011;167;47.558;7.602;2023-07-30T11:00:51;0.70;;;0.70;;
357;SDS011;167;47.558;7.602;2023-07-30T11:03:17;0.83;;;0.83;;
357;SDS011;167;47.558;7.602;2023-07-30T11:05:46;0.70;;;0.70;;
357;SDS011;167;47.558;7.602;2023-07-30T11:08:12;0.70;;;0.70;;
357;SDS011;167;47.558;7.602;2023-07-30T11:10:45;0.60;;;0.60;;
357;SDS011;167;47.558;7.602;2023-07-30T11:13:14;1.37;;;0.80;;
357;SDS011;167;47.558;7.602;2023-07-30T11:15:43;0.90;;;0.90;;
357;SDS011;167;47.558;7.602;2023-07-30T11:18:10;0.73;;;0.70;;
357;SDS011;167;47.558;7.602;2023-07-30T11:20:37;0.90;;;0.90;;
357;SDS011;167;47.558;7.602;2023-07-30T11:23:16;0.83;;;0.83;;
357;SDS011;167;47.558;7.602;2023-07-30T11:25:45;0.53;;;0.53;;
357;SDS011;167;47.558;7.602;2023-07-30T11:28:11;0.60;;;0.60;;
357;SDS011;167;47.558;7.602;2023-07-30T11:30:37;0.87;;;0.87;;
357;SDS011;167;47.558;7.602;2023-07-30T11:33:03;0.70;;;0.70;;
357;SDS011;167;47.558;7.602;2023-07-30T11:35:29;0.60;;;0.57;;
357;SDS011;167;47.558;7.602;2023-07-30T11:37:55;0.90;;;0.90;;
357;SDS011;167;47.558;7.602;2023-07-30T11:40:22;0.80;;;0.80;;
357;SDS011;167;47.558;7.602;2023-07-30T11:42:49;0.93;;;0.93;;
357;SDS011;167;47.558;7.602;2023-07-30T11:45:19;0.80;;;0.80;;
357;SDS011;167;47.558;7.602;2023-07-30T11:47:45;0.70;;;0.70;;
357;SDS011;167;47.558;7.602;2023-07-30T11:50:11;0.67;;;0.67;;
357;SDS011;167;47.558;7.602;2023-07-30T11:52:50;0.60;;;0.60;;
357;SDS011;167;47.558;7.602;2023-07-30T11:55:16;0.93;;;0.93;;
357;SDS011;167;47.558;7.602;2023-07-30T11:57:44;0.80;;;0.80;;
357;SDS011;167;47.558;7.602;2023-07-30T12:00:10;0.70;;;0.70;;
357;SDS011;167;47.558;7.602;2023-07-30T12:02:37;0.67;;;0.67;;
357;SDS011;167;47.558;7.602;2023-07-30T12:05:03;0.70;;;0.70;;
357;SDS011;167;47.558;7.602;2023-07-30T12:07:29;0.60;;;0.60;;
357;SDS011;167;47.558;7.602;2023-07-30T12:10:10;0.93;;;0.93;;
357;SDS011;167;47.558;7.602;2023-07-30T12:12:43;0.83;;;0.83;;
357;SDS011;167;47.558;7.602;2023-07-30T12:15:12;0.70;;;0.70;;
357;SDS011;167;47.558;7.602;2023-07-30T12:17:38;0.77;;;0.77;;
357;SDS011;167;47.558;7.602;2023-07-30T12:20:05;0.97;;;0.80;;
357;SDS011;167;47.558;7.602;2023-07-30T12:22:34;0.70;;;0.70;;
357;SDS011;167;47.558;7.602;2023-07-30T12:25:01;0.60;;;0.60;;
357;SDS011;167;47.558;7.602;2023-07-30T12:27:31;1.00;;;1.00;;
357;SDS011;167;47.558;7.602;2023-07-30T12:29:57;1.70;;;0.70;;
357;SDS011;167;47.558;7.602;2023-07-30T12:32:23;0.70;;;0.70;;
357;SDS011;167;47.558;7.602;2023-07-30T12:34:49;0.80;;;0.80;;
357;SDS011;167;47.558;7.602;2023-07-30T12:37:15;0.80;;;0.80;;
357;SDS011;167;47.558;7.602;2023-07-30T12:39:41;0.50;;;0.50;;
357;SDS011;167;47.558;7.602;2023-07-30T12:42:07;0.70;;;0.70;;
357;SDS011;167;47.558;7.602;2023-07-30T12:44:33;0.70;;;0.70;;
357;SDS011;167;47.558;7.602;2023-07-30T12:46:59;1.70;;;0.70;;
357;SDS011;167;47.558;7.602;2023-07-30T12:49:25;0.70;;;0.70;;
357;SDS011;167;47.558;7.602;2023-07-30T12:51:51;0.40;;;0.40;;
357;SDS011;167;47.558;7.602;2023-07-30T12:54:17;0.70;;;0.70;;
357;SDS011;167;47.558;7.602;2023-07-30T12:56:43;1.10;;;1.00;;
357;SDS011;167;47.558;7.602;2023-07-30T12:59:09;0.70;;;0.70;;
357;SDS011;167;47.558;7.602;2023-07-30T13:01:35;0.67;;;0.67;;
357;SDS011;167;47.558;7.602;2023-07-30T13:04:00;0.57;;;0.57;;
357;SDS011;167;47.558;7.602;2023-07-30T13:06:26;1.03;;;0.87;;
357;SDS011;167;47.558;7.602;2023-07-30T13:08:52;0.70;;;0.70;;
357;SDS011;167;47.558;7.602;2023-07-30T13:11:18;0.57;;;0.57;;
357;SDS011;167;47.558;7.602;2023-07-30T13:13:45;1.77;;;0.83;;
357;SDS011;167;47.558;7.602;2023-07-30T13:16:11;0.60;;;0.60;;
357;SDS011;167;47.558;7.602;2023-07-30T13:18:37;0.90;;;0.90;;
357;SDS011;167;47.558;7.602;2023-07-30T13:21:03;1.07;;;0.80;;
357;SDS011;167;47.558;7.602;2023-07-30T13:23:29;0.93;;;0.90;;
357;SDS011;167;47.558;7.602;2023-07-30T13:25:55;0.87;;;0.87;;
357;SDS011;167;47.558;7.602;2023-07-30T13:28:21;0.73;;;0.73;;
357;SDS011;167;47.558;7.602;2023-07-30T13:30:47;0.90;;;0.90;;
357;SDS011;167;47.558;7.602;2023-07-30T13:33:15;0.87;;;0.87;;
357;SDS011;167;47.558;7.602;2023-07-30T13:35:41;1.33;;;0.90;;
357;SDS011;167;47.558;7.602;2023-07-30T13:38:07;0.73;;;0.73;;
357;SDS011;167;47.558;7.602;2023-07-30T13:40:33;1.03;;;0.80;;
357;SDS011;167;47.558;7.602;2023-07-30T13:42:59;0.80;;;0.80;;
357;SDS011;167;47.558;7.602;2023-07-30T13:45:25;0.70;;;0.70;;
357;SDS011;167;47.558;7.602;2023-07-30T13:47:51;1.00;;;1.00;;
357;SDS011;167;47.558;7.602;2023-07-30T13:50:17;1.33;;;1.00;;
357;SDS011;167;47.558;7.602;2023-07-30T13:52:43;1.60;;;1.40;;
357;SDS011;167;47.558;7.602;2023-07-30T13:55:10;0.60;;;0.60;;
357;SDS011;167;47.558;7.602;2023-07-30T13:57:36;0.70;;;0.70;;
357;SDS011;167;47.558;7.602;2023-07-30T14:00:02;0.77;;;0.77;;
357;SDS011;167;47.558;7.602;2023-07-30T14:02:28;1.30;;;1.07;;
357;SDS011;167;47.558;7.602;2023-07-30T14:04:54;1.20;;;1.10;;
357;SDS011;167;47.558;7.602;2023-07-30T14:07:20;0.97;;;0.97;;
357;SDS011;167;47.558;7.602;2023-07-30T14:09:46;0.90;;;0.90;;
357;SDS011;167;47.558;7.602;2023-07-30T14:12:12;1.03;;;0.90;;
357;SDS011;167;47.558;7.602;2023-07-30T14:14:38;1.03;;;1.03;;
357;SDS011;167;47.558;7.602;2023-07-30T14:17:04;1.10;;;1.10;;
357;SDS011;167;47.558;7.602;2023-07-30T14:19:31;1.17;;;1.10;;
357;SDS011;167;47.558;7.602;2023-07-30T14:21:58;1.57;;;1.00;;
357;SDS011;167;47.558;7.602;2023-07-30T14:24:23;1.27;;;0.93;;
357;SDS011;167;47.558;7.602;2023-07-30T14:26:49;1.00;;;1.00;;
357;SDS011;167;47.558;7.602;2023-07-30T14:29:15;1.73;;;1.20;;
357;SDS011;167;47.558;7.602;2023-07-30T14:31:42;1.03;;;1.00;;
357;SDS011;167;47.558;7.602;2023-07-30T14:34:08;0.90;;;0.90;;
357;SDS011;167;47.558;7.602;2023-07-30T14:36:34;1.30;;;1.20;;
357;SDS011;167;47.558;7.602;2023-07-30T14:39:00;1.20;;;1.10;;
357;SDS011;167;47.558;7.602;2023-07-30T14:41:25;1.10;;;1.10;;
357;SDS011;167;47.558;7.602;2023-07-30T14:43:51;1.20;;;1.10;;
357;SDS011;167;47.558;7.602;2023-07-30T14:46:17;1.33;;;1.30;;
357;SDS011;167;47.558;7.602;2023-07-30T14:48:43;1.00;;;1.00;;
357;SDS011;167;47.558;7.602;2023-07-30T14:51:09;1.23;;;1.20;;
357;SDS011;167;47.558;7.602;2023-07-30T14:53:36;0.90;;;0.90;;
357;SDS011;167;47.558;7.602;2023-07-30T14:56:02;1.20;;;1.10;;
357;SDS011;167;47.558;7.602;2023-07-30T14:58:28;1.30;;;1.27;;
357;SDS011;167;47.558;7.602;2023-07-30T15:00:54;1.33;;;0.93;;
357;SDS011;167;47.558;7.602;2023-07-30T15:03:20;0.90;;;0.90;;
357;SDS011;167;47.558;7.602;2023-07-30T15:05:46;2.17;;;1.30;;
357;SDS011;167;47.558;7.602;2023-07-30T15:08:12;1.00;;;1.00;;
357;SDS011;167;47.558;7.602;2023-07-30T15:10:38;2.10;;;1.10;;
357;SDS011;167;47.558;7.602;2023-07-30T15:13:04;1.03;;;1.00;;
357;SDS011;167;47.558;7.602;2023-07-30T15:15:30;0.70;;;0.70;;
357;SDS011;167;47.558;7.602;2023-07-30T15:17:56;1.20;;;1.10;;
357;SDS011;167;47.558;7.602;2023-07-30T15:20:22;1.40;;;0.93;;
357;SDS011;167;47.558;7.602;2023-07-30T15:22:48;0.97;;;0.97;;
357;SDS011;167;47.558;7.602;2023-07-30T15:25:16;1.70;;;1.60;;
357;SDS011;167;47.558;7.602;2023-07-30T15:27:41;1.20;;;1.20;;
357;SDS011;167;47.558;7.602;2023-07-30T15:30:07;1.10;;;1.10;;
357;SDS011;167;47.558;7.602;2023-07-30T15:32:37;0.80;;;0.80;;
357;SDS011;167;47.558;7.602;2023-07-30T15:35:06;1.30;;;1.20;;
357;SDS011;167;47.558;7.602;2023-07-30T15:37:32;1.10;;;1.10;;
357;SDS011;167;47.558;7.602;2023-07-30T15:39:57;1.07;;;0.97;;